Flight Track Log - Related Links

Times and Time Zones

All times are in EDT time to prevent confusion due to time zone crossing. See the N46024 flight status page for this flight to view local times or setup timezone preferences in your user account.

Time Position Orientation Groundspeed Altitude Reporting Facility
EDT Latitude Longitude Course Direction KTS MPH feet Rate Location/Type
Tue 12:46:30 PM 29.1603 -82.2267 181° South 66 76 700  Level Jacksonville Center
Tue 12:47:31 PM 29.1394 -82.2269 181° South 68 78 1,500 645 Climbing Jacksonville Center
Tue 12:48:31 PM 29.1208 -82.2269 180° South 71 82 2,000 298 Climbing Jacksonville Center
Tue 12:49:32 PM 29.0958 -82.2247 176° South 82 94 2,100 393 Climbing Jacksonville Center
Tue 12:50:33 PM 29.0728 -82.2250 181° South 78 90 2,800 689 Climbing Jacksonville Center
Tue 12:51:34 PM 29.0519 -82.2275 186° South 70 81 3,500 689 Climbing Jacksonville Center
Tue 12:52:35 PM 29.0331 -82.2275 180° South 69 79 4,200 639 Climbing Jacksonville Center
Tue 12:53:36 PM 29.0122 -82.2300 186° South 72 83 4,800 393 Climbing Jacksonville Center
Tue 12:54:37 PM 28.9892 -82.2278 175° South 84 97 5,000 99 Climbing Jacksonville Center
Tue 12:55:37 PM 28.9642 -82.2208 166° South 94 108 5,000  Level Jacksonville Center
Tue 12:56:32 PM 28.9411 -82.2189 176° South 86 99 5,000  Level Jacksonville Center
Tue 12:57:33 PM 28.9161 -82.2189 180° South 88 101 5,000  Level Jacksonville Center
Tue 12:58:34 PM 28.8911 -82.2167 176° South 92 106 5,000 -49 Level Jacksonville Center
Tue 12:59:35 PM 28.8661 -82.2144 176° South 90 104 4,900 -49 Descending Jacksonville Center
Tue 01:00:36 PM 28.8389 -82.2122 176° South 95 109 4,900 31 Level Jacksonville Center
Tue 01:02:47 PM 28.7833 -82.2167 184° South 94 108 5,000 32 Climbing Tampa TRACON
Tue 01:03:42 PM 28.7667 -82.2167 180° South 93 107 5,000  Level Tampa TRACON
Tue 01:04:47 PM 28.7333 -82.2167 180° South 94 108 5,000  Level Tampa TRACON
Tue 01:05:48 PM 28.7000 -82.2333 204° Southwest 95 109 5,000  Level Tampa TRACON
Tue 01:06:48 PM 28.6833 -82.2333 180° South 92 106 5,000  Level Tampa TRACON
Tue 01:07:48 PM 28.6500 -82.2333 180° South 91 105 5,000  Level Tampa TRACON
Tue 01:08:48 PM 28.6333 -82.2333 180° South 96 110 5,000  Level Tampa TRACON
Tue 01:09:48 PM 28.6000 -82.2167 156° South 95 109 5,000  Level Tampa TRACON
Tue 01:10:48 PM 28.5833 -82.2167 180° South 93 107 5,000 -381 Level Tampa TRACON
Tue 01:11:54 PM 28.5500 -82.2167 180° South 98 113 4,200 -667 Descending Tampa TRACON
Tue 01:12:54 PM 28.5167 -82.2000 156° South 103 119 3,600 -600 Descending Tampa TRACON
Tue 01:13:54 PM 28.5000 -82.2000 180° South 102 117 3,000 -500 Descending Tampa TRACON
Tue 01:14:54 PM 28.4667 -82.2000 180° South 101 116 2,600 -400 Descending Tampa TRACON

Login

Don't have an account? Register now (free) for customized features, flight alerts, and more!